Time;durP1;ratioP1;P1;durP2;ratioP2;P2;SDS_P1;SDS_P2;PMS_P1;PMS_P2;Temp;Humidity;BMP_temperature;BMP_pressure;BME280_temperature;BME280_humidity;BME280_pressure;Samples;Min_cycle;Max_cycle;Signal;HPM_P1;HPM_P2
2023/05/11 04:01:06;;;;;;;6.93;4.07;;;12.70;99.90;;;;;;5644595;23;20858;-72
2023/05/11 04:03:32;;;;;;;5.27;3.47;;;12.70;99.90;;;;;;4993674;28;20463;-73
2023/05/11 04:05:59;;;;;;;3.77;3.40;;;12.70;99.90;;;;;;4994050;28;20498;-73
2023/05/11 04:08:26;;;;;;;4.73;2.77;;;12.70;99.90;;;;;;4993354;28;20467;-73
2023/05/11 04:10:53;;;;;;;7.30;3.57;;;12.70;99.90;;;;;;4993790;28;20483;-73
2023/05/11 04:13:19;;;;;;;5.77;3.50;;;12.70;99.90;;;;;;4993106;28;20471;-73
2023/05/11 04:15:46;;;;;;;11.00;5.90;;;12.70;99.90;;;;;;5009577;23;20594;-72
2023/05/11 04:18:14;;;;;;;9.70;4.20;;;12.70;99.90;;;;;;4974083;28;20472;-72
2023/05/11 04:20:41;;;;;;;7.10;3.37;;;12.70;99.90;;;;;;4974091;28;20460;-73
2023/05/11 04:23:07;;;;;;;9.00;4.63;;;12.80;99.90;;;;;;4972996;28;20464;-72
2023/05/11 04:25:34;;;;;;;5.27;4.73;;;12.80;99.90;;;;;;4972880;28;20590;-72
2023/05/11 04:28:01;;;;;;;7.97;4.83;;;12.80;99.90;;;;;;4973865;28;20467;-72
2023/05/11 04:30:27;;;;;;;9.00;5.20;;;12.80;99.90;;;;;;4973558;28;20808;-72
2023/05/11 04:32:54;;;;;;;8.83;6.03;;;12.90;99.90;;;;;;4973383;28;20483;-72
2023/05/11 04:35:23;;;;;;;5.40;4.10;;;12.90;99.90;;;;;;4972630;28;20488;-72
2023/05/11 04:37:50;;;;;;;9.73;4.83;;;12.90;99.90;;;;;;4972869;28;20474;-72
2023/05/11 04:40:17;;;;;;;7.97;4.53;;;12.90;99.90;;;;;;4966955;28;20465;-71
2023/05/11 04:42:43;;;;;;;3.57;3.23;;;12.80;99.90;;;;;;4973537;28;20467;-71
2023/05/11 04:45:11;;;;;;;5.77;5.37;;;12.90;99.90;;;;;;4972915;28;20554;-72
2023/05/11 04:47:38;;;;;;;9.10;5.97;;;12.90;99.90;;;;;;4973544;28;20534;-73
2023/05/11 04:50:05;;;;;;;6.50;5.70;;;12.90;99.90;;;;;;4973316;28;20472;-73
2023/05/11 04:52:33;;;;;;;4.60;4.03;;;12.90;99.90;;;;;;4973434;28;20471;-73
2023/05/11 04:55:00;;;;;;;5.97;4.37;;;12.90;99.90;;;;;;4972201;28;21179;-73
2023/05/11 04:57:27;;;;;;;5.67;4.40;;;13.00;99.90;;;;;;4972968;28;20978;-73
2023/05/11 04:59:53;;;;;;;5.33;4.23;;;13.00;99.90;;;;;;4972665;28;20464;-73
2023/05/11 05:02:20;;;;;;;4.33;3.93;;;13.00;99.90;;;;;;4972951;28;20973;-73
2023/05/11 05:04:47;;;;;;;3.47;3.17;;;13.10;99.90;;;;;;4972474;28;20476;-73
2023/05/11 05:07:13;;;;;;;4.37;2.83;;;13.10;99.90;;;;;;4973084;28;20483;-73
2023/05/11 05:09:42;;;;;;;6.03;3.53;;;13.10;99.90;;;;;;4971647;28;20555;-73
2023/05/11 05:12:08;;;;;;;4.97;4.10;;;13.10;99.90;;;;;;4973086;28;20459;-73
2023/05/11 05:14:35;;;;;;;4.83;2.77;;;13.10;99.90;;;;;;4972651;28;20839;-73
2023/05/11 05:17:02;;;;;;;4.67;3.97;;;13.10;99.90;;;;;;4972606;28;20491;-73
2023/05/11 05:19:28;;;;;;;6.53;3.67;;;13.00;99.90;;;;;;4972498;28;20467;-73
2023/05/11 05:21:55;;;;;;;4.13;3.73;;;13.10;99.90;;;;;;4972907;28;20467;-73
2023/05/11 05:24:22;;;;;;;5.13;4.00;;;13.10;99.90;;;;;;4971255;28;20487;-73
2023/05/11 05:26:50;;;;;;;4.30;3.87;;;13.10;99.90;;;;;;4972929;28;20918;-73
2023/05/11 05:29:16;;;;;;;5.67;4.10;;;13.10;99.90;;;;;;4972531;28;20463;-73
2023/05/11 05:31:43;;;;;;;5.97;4.67;;;13.10;99.90;;;;;;4972601;28;20843;-72
2023/05/11 05:34:10;;;;;;;10.07;4.00;;;13.00;99.90;;;;;;4972158;28;20459;-72
2023/05/11 05:36:37;;;;;;;4.77;4.33;;;13.00;99.90;;;;;;4972271;28;20819;-72
2023/05/11 05:39:08;;;;;;;8.27;3.13;;;12.90;99.90;;;;;;4971244;28;20463;-73
2023/05/11 05:41:36;;;;;;;5.90;4.90;;;12.90;99.90;;;;;;4966402;28;20563;-73
2023/05/11 05:44:04;;;;;;;3.83;3.57;;;12.90;99.90;;;;;;4971602;28;20517;-71
2023/05/11 05:46:31;;;;;;;5.07;4.53;;;13.00;99.90;;;;;;4972156;28;20487;-71
2023/05/11 05:48:57;;;;;;;4.90;4.40;;;13.00;99.90;;;;;;4971918;28;20468;-71
2023/05/11 05:51:24;;;;;;;4.20;3.00;;;13.10;99.90;;;;;;4971982;28;20464;-72
2023/05/11 05:53:51;;;;;;;5.40;3.40;;;13.10;99.90;;;;;;4970400;28;20527;-72
2023/05/11 05:56:18;;;;;;;4.10;3.60;;;13.00;99.90;;;;;;4972179;28;20488;-72
2023/05/11 05:58:44;;;;;;;5.07;4.57;;;13.00;99.90;;;;;;4971951;28;20467;-72
2023/05/11 06:01:12;;;;;;;3.10;2.80;;;13.00;99.90;;;;;;4972057;28;20467;-72
2023/05/11 06:03:39;;;;;;;3.57;3.20;;;13.00;99.90;;;;;;4971207;28;20475;-72
2023/05/11 06:06:07;;;;;;;6.13;4.40;;;13.10;99.90;;;;;;4971869;28;20578;-72
2023/05/11 06:08:33;;;;;;;5.00;4.60;;;13.10;99.90;;;;;;4971304;28;20467;-72
2023/05/11 06:11:00;;;;;;;6.67;3.40;;;13.20;99.90;;;;;;4971060;28;20475;-73
2023/05/11 06:13:27;;;;;;;7.23;4.20;;;13.20;99.90;;;;;;4971188;28;20826;-73
2023/05/11 06:15:53;;;;;;;3.33;2.70;;;13.30;99.90;;;;;;4971836;28;20498;-73
2023/05/11 06:18:21;;;;;;;4.53;2.93;;;13.30;99.90;;;;;;4972081;28;20473;-72
2023/05/11 06:20:48;;;;;;;6.23;5.40;;;13.40;99.90;;;;;;4971590;28;20467;-73
2023/05/11 06:23:15;;;;;;;4.37;4.07;;;13.40;99.90;;;;;;4970260;28;20838;-73
2023/05/11 06:25:42;;;;;;;3.10;2.90;;;13.40;99.90;;;;;;4971675;28;20880;-73
2023/05/11 06:28:09;;;;;;;5.83;3.83;;;13.50;99.90;;;;;;4971461;28;20511;-72
2023/05/11 06:30:35;;;;;;;5.73;3.90;;;13.50;99.90;;;;;;4971470;28;20471;-73
2023/05/11 06:33:02;;;;;;;4.83;4.47;;;13.50;99.90;;;;;;4971335;28;20875;-73
2023/05/11 06:35:30;;;;;;;6.53;4.13;;;13.50;99.90;;;;;;4971088;28;20483;-72
2023/05/11 06:37:57;;;;;;;4.40;2.87;;;13.50;99.90;;;;;;4971071;28;20474;-73
2023/05/11 06:40:24;;;;;;;7.60;2.43;;;13.60;99.90;;;;;;4965186;28;20471;-73
2023/05/11 06:42:50;;;;;;;5.87;4.13;;;13.50;99.90;;;;;;4971882;28;20495;-73
2023/05/11 06:45:17;;;;;;;4.37;3.97;;;13.60;99.90;;;;;;4971129;28;21030;-73
2023/05/11 06:47:44;;;;;;;3.33;3.13;;;13.50;99.90;;;;;;4971854;28;20468;-72
2023/05/11 06:50:11;;;;;;;2.90;2.70;;;13.60;99.90;;;;;;4972256;28;20782;-72
2023/05/11 06:52:39;;;;;;;4.27;3.83;;;13.60;99.90;;;;;;4972947;28;20483;-73
2023/05/11 06:55:07;;;;;;;3.00;2.80;;;13.60;99.90;;;;;;4975843;28;20464;-73
2023/05/11 06:57:33;;;;;;;5.30;3.13;;;13.60;99.90;;;;;;4974104;28;20499;-73
2023/05/11 07:00:00;;;;;;;6.83;3.53;;;13.60;99.90;;;;;;4971565;28;20805;-73
2023/05/11 07:02:27;;;;;;;3.83;3.53;;;13.60;99.90;;;;;;4971222;28;20468;-73
2023/05/11 07:04:53;;;;;;;4.67;3.87;;;13.60;99.90;;;;;;4970499;28;20468;-73
2023/05/11 07:07:21;;;;;;;3.27;3.03;;;13.60;99.90;;;;;;4971110;28;20495;-73
2023/05/11 07:09:49;;;;;;;4.70;4.30;;;13.60;99.90;;;;;;4970604;28;20474;-73
2023/05/11 07:12:16;;;;;;;6.97;2.97;;;13.60;99.90;;;;;;4971413;28;20471;-73
2023/05/11 07:14:42;;;;;;;3.77;3.33;;;13.60;99.90;;;;;;4970313;28;20835;-73
2023/05/11 07:17:09;;;;;;;9.60;3.60;;;13.50;99.90;;;;;;4970968;28;20487;-73
2023/05/11 07:19:36;;;;;;;7.30;2.90;;;13.50;99.90;;;;;;4971073;28;20464;-73
2023/05/11 07:22:04;;;;;;;6.97;3.13;;;13.50;99.90;;;;;;4972902;28;20464;-73
2023/05/11 07:24:31;;;;;;;3.10;2.37;;;13.50;99.90;;;;;;4973754;28;20839;-72
2023/05/11 07:27:00;;;;;;;4.77;4.10;;;13.50;99.90;;;;;;4974961;28;20884;-72
2023/05/11 07:29:27;;;;;;;3.30;2.37;;;13.50;99.90;;;;;;4974664;28;20928;-73
2023/05/11 07:31:54;;;;;;;2.47;2.20;;;13.50;99.90;;;;;;4975066;28;20534;-73
2023/05/11 07:34:20;;;;;;;3.83;2.70;;;13.30;99.90;;;;;;4974336;28;20460;-72
2023/05/11 07:36:47;;;;;;;2.63;2.40;;;13.20;99.90;;;;;;4975040;28;21007;-73
2023/05/11 07:39:15;;;;;;;2.70;2.50;;;13.20;99.90;;;;;;4974170;28;20882;-72
2023/05/11 07:41:42;;;;;;;3.50;1.80;;;13.30;99.90;;;;;;4968808;28;20456;-72
2023/05/11 07:44:10;;;;;;;4.27;2.97;;;13.20;99.90;;;;;;4974392;28;20466;-72
2023/05/11 07:46:37;;;;;;;2.60;2.40;;;13.20;99.90;;;;;;4974459;28;20862;-72
2023/05/11 07:49:03;;;;;;;4.10;3.40;;;13.10;99.90;;;;;;4974460;28;20464;-72
2023/05/11 07:51:30;;;;;;;6.63;2.90;;;13.10;99.90;;;;;;4974658;28;20471;-73
2023/05/11 07:53:57;;;;;;;8.67;2.20;;;13.10;99.90;;;;;;4973369;28;20522;-72
2023/05/11 07:56:24;;;;;;;6.87;2.73;;;13.10;99.90;;;;;;4974245;28;20500;-73
2023/05/11 07:58:50;;;;;;;4.10;2.50;;;13.10;99.90;;;;;;4974448;28;20459;-73
2023/05/11 08:01:18;;;;;;;1.70;1.50;;;13.10;99.90;;;;;;4974251;28;20468;-73
2023/05/11 08:03:45;;;;;;;5.57;2.43;;;13.00;99.90;;;;;;4973516;28;20518;-72
2023/05/11 08:06:12;;;;;;;4.37;2.33;;;13.10;99.90;;;;;;4974011;28;20492;-73
2023/05/11 08:08:38;;;;;;;3.23;2.00;;;13.10;99.90;;;;;;4973123;28;20463;-73
2023/05/11 08:11:05;;;;;;;2.60;2.40;;;13.10;99.90;;;;;;4973978;28;20463;-73
2023/05/11 08:13:33;;;;;;;2.00;1.80;;;13.20;99.90;;;;;;4973939;28;20463;-73
2023/05/11 08:15:59;;;;;;;4.40;2.23;;;13.10;99.90;;;;;;4973605;28;20484;-73
2023/05/11 08:18:28;;;;;;;4.30;3.90;;;13.10;99.90;;;;;;4973675;28;20481;-73
2023/05/11 08:20:55;;;;;;;5.13;1.57;;;13.20;99.90;;;;;;4974028;28;20479;-73
2023/05/11 08:23:21;;;;;;;2.10;1.90;;;13.20;99.90;;;;;;4972179;28;20472;-73
2023/05/11 08:25:51;;;;;;;2.33;2.20;;;13.10;99.90;;;;;;4974036;28;20490;-73
2023/05/11 08:28:18;;;;;;;1.70;1.60;;;13.20;99.90;;;;;;4973858;28;20511;-73
2023/05/11 08:30:44;;;;;;;10.07;2.63;;;13.20;99.90;;;;;;4973857;28;20463;-73
2023/05/11 08:33:11;;;;;;;2.30;2.07;;;13.30;99.90;;;;;;4973377;28;20964;-71
2023/05/11 08:35:40;;;;;;;2.67;2.33;;;13.20;99.90;;;;;;4973470;28;20504;-72
2023/05/11 08:38:06;;;;;;;3.83;3.43;;;13.30;99.90;;;;;;4972757;28;20464;-72
2023/05/11 08:40:33;;;;;;;1.63;1.53;;;13.40;99.90;;;;;;4963614;28;20520;-71
2023/05/11 08:43:01;;;;;;;2.40;1.83;;;13.40;99.90;;;;;;4954460;28;20559;-73
2023/05/11 08:45:31;;;;;;;1.90;1.80;;;13.40;99.90;;;;;;4953655;29;20579;-73
2023/05/11 08:47:58;;;;;;;1.73;1.43;;;13.30;99.90;;;;;;4954189;29;20493;-72
2023/05/11 08:50:24;;;;;;;4.17;2.50;;;13.40;99.90;;;;;;4954120;29;20571;-72
2023/05/11 08:52:53;;;;;;;3.27;3.03;;;13.40;99.90;;;;;;4953383;29;20468;-72
2023/05/11 08:55:20;;;;;;;3.13;1.50;;;13.40;99.90;;;;;;4953096;29;20485;-74
2023/05/11 08:57:48;;;;;;;3.17;2.80;;;13.50;99.90;;;;;;4954181;29;20472;-71
2023/05/11 09:00:16;;;;;;;7.87;4.13;;;13.50;99.90;;;;;;4954012;29;20835;-74
2023/05/11 09:02:43;;;;;;;3.47;2.80;;;13.60;99.90;;;;;;4953956;29;20953;-74
2023/05/11 09:05:11;;;;;;;2.57;2.37;;;13.70;99.90;;;;;;4953464;29;20666;-74
2023/05/11 09:07:40;;;;;;;3.10;2.90;;;13.70;99.90;;;;;;4953493;29;20515;-72
2023/05/11 09:10:09;;;;;;;3.13;2.83;;;13.70;99.90;;;;;;4953134;29;21020;-74
2023/05/11 09:12:37;;;;;;;5.30;3.47;;;13.70;99.90;;;;;;4953632;29;20469;-74
2023/05/11 09:15:05;;;;;;;3.20;3.10;;;13.70;99.90;;;;;;4952777;28;20476;-74
2023/05/11 09:17:32;;;;;;;6.10;3.50;;;13.70;99.90;;;;;;4953479;28;20588;-73
2023/05/11 09:20:00;;;;;;;10.23;4.17;;;13.80;99.90;;;;;;4953516;29;20827;-74
2023/05/11 09:22:27;;;;;;;3.87;3.47;;;13.80;99.90;;;;;;4953498;29;20472;-73
2023/05/11 09:24:54;;;;;;;4.40;4.00;;;13.90;99.90;;;;;;4951817;29;20515;-73
2023/05/11 09:27:24;;;;;;;6.13;4.00;;;14.00;99.90;;;;;;4953254;29;20492;-73
2023/05/11 09:29:53;;;;;;;10.17;3.20;;;14.10;99.90;;;;;;4953121;29;20955;-73
2023/05/11 09:32:19;;;;;;;11.23;4.27;;;14.20;99.90;;;;;;4953002;29;20473;-73
2023/05/11 09:34:46;;;;;;;5.10;2.87;;;14.30;99.90;;;;;;4952587;29;20961;-74
2023/05/11 09:37:17;;;;;;;7.23;4.43;;;14.40;99.90;;;;;;4952973;29;20516;-71
2023/05/11 09:39:44;;;;;;;9.43;3.90;;;14.40;99.90;;;;;;4951932;28;20950;-74
2023/05/11 09:42:12;;;;;;;10.13;3.27;;;14.50;99.90;;;;;;4969998;28;20471;-73
2023/05/11 09:44:41;;;;;;;5.90;3.43;;;14.60;99.90;;;;;;4971299;28;20474;-73
2023/05/11 09:47:12;;;;;;;5.73;4.20;;;14.60;99.90;;;;;;4972482;28;20982;-73
2023/05/11 09:49:41;;;;;;;3.03;2.77;;;14.50;99.90;;;;;;4972314;28;20499;-73
2023/05/11 09:52:11;;;;;;;9.70;3.37;;;14.40;99.90;;;;;;4972360;28;20464;-72
2023/05/11 09:54:45;;;;;;;7.07;3.03;;;14.60;99.90;;;;;;4971450;28;20499;-73
2023/05/11 09:57:26;;;;;;;4.40;3.87;;;14.70;99.90;;;;;;4971990;28;20543;-72
2023/05/11 09:59:55;;;;;;;3.13;2.70;;;14.90;99.90;;;;;;4972200;28;20486;-73
2023/05/11 10:02:23;;;;;;;3.87;3.37;;;14.90;99.90;;;;;;4972329;28;20467;-73
2023/05/11 10:04:51;;;;;;;4.43;4.03;;;14.90;99.90;;;;;;4971520;28;20486;-73
2023/05/11 10:07:25;;;;;;;5.20;4.30;;;14.90;99.90;;;;;;4971989;28;20653;-72
2023/05/11 10:09:54;;;;;;;10.50;3.77;;;14.90;99.90;;;;;;4970947;28;20466;-73
2023/05/11 10:12:22;;;;;;;5.47;3.27;;;15.10;99.90;;;;;;4972259;28;20811;-73
2023/05/11 10:14:52;;;;;;;5.33;4.73;;;15.00;99.90;;;;;;4971547;28;20496;-73
2023/05/11 10:17:20;;;;;;;6.97;4.30;;;15.00;99.90;;;;;;4972495;28;20471;-72
2023/05/11 10:19:48;;;;;;;8.03;3.93;;;14.90;99.90;;;;;;4972103;28;20960;-73
2023/05/11 10:22:15;;;;;;;4.87;2.57;;;14.90;99.90;;;;;;4972129;28;20459;-73
2023/05/11 10:24:43;;;;;;;7.17;3.87;;;14.90;99.90;;;;;;4971419;28;20874;-73
2023/05/11 10:27:11;;;;;;;6.87;3.80;;;15.00;99.90;;;;;;4973699;28;20562;-73
2023/05/11 10:29:38;;;;;;;7.70;5.60;;;15.00;99.90;;;;;;4974223;28;20491;-74
2023/05/11 10:32:07;;;;;;;5.70;3.30;;;14.90;99.90;;;;;;4973257;28;20468;-73
2023/05/11 10:34:38;;;;;;;9.67;5.17;;;15.00;99.90;;;;;;4974630;28;20618;-74
2023/05/11 10:37:05;;;;;;;7.20;5.00;;;15.10;99.90;;;;;;4974350;28;20574;-73
2023/05/11 10:39:33;;;;;;;13.73;5.87;;;15.10;99.90;;;;;;4970416;28;20478;-74
2023/05/11 10:42:13;;;;;;;3.40;3.20;;;15.10;99.90;;;;;;4968235;28;20468;-73
2023/05/11 10:45:01;;;;;;;9.00;4.97;;;15.10;99.90;;;;;;4970967;28;20964;-73
2023/05/11 10:47:57;;;;;;;4.60;3.90;;;15.20;99.90;;;;;;4971524;28;21100;-73
2023/05/11 10:50:51;;;;;;;7.13;5.67;;;15.30;99.90;;;;;;4966844;28;20562;-73
2023/05/11 10:53:38;;;;;;;5.50;5.00;;;15.30;99.90;;;;;;4970376;28;20838;-72
2023/05/11 10:56:30;;;;;;;6.40;5.17;;;15.40;99.90;;;;;;4971570;28;20537;-73
2023/05/11 10:59:29;;;;;;;12.23;6.63;;;15.50;99.90;;;;;;4975621;28;20557;-73
2023/05/11 11:02:00;;;;;;;4.97;4.50;;;15.80;99.90;;;;;;4975305;28;20475;-72
2023/05/11 11:04:42;;;;;;;7.70;6.30;;;16.20;99.90;;;;;;4974826;28;20499;-73
2023/05/11 11:07:10;;;;;;;7.57;4.60;;;16.60;99.90;;;;;;4975019;28;20534;-73
2023/05/11 11:09:58;;;;;;;4.53;4.13;;;16.80;99.90;;;;;;4974366;28;20950;-73
2023/05/11 11:12:26;;;;;;;9.80;6.10;;;17.00;99.90;;;;;;4975037;28;21000;-73
2023/05/11 11:14:55;;;;;;;7.67;4.53;;;17.00;99.90;;;;;;4974937;28;20829;-73
2023/05/11 11:17:23;;;;;;;6.83;5.10;;;17.20;99.90;;;;;;4975232;28;20460;-73
2023/05/11 11:19:49;;;;;;;6.23;5.60;;;17.30;99.90;;;;;;4975101;28;20477;-74
2023/05/11 11:22:49;;;;;;;4.60;4.20;;;17.30;99.90;;;;;;4975116;28;20470;-72
2023/05/11 11:25:35;;;;;;;4.60;4.10;;;17.40;99.90;;;;;;4973949;28;20494;-73
2023/05/11 11:28:02;;;;;;;5.00;4.60;;;17.40;99.90;;;;;;4974817;28;20546;-72
2023/05/11 11:30:29;;;;;;;5.60;4.30;;;17.30;99.90;;;;;;4975142;28;20810;-73
2023/05/11 11:33:32;;;;;;;3.93;3.63;;;17.40;99.90;;;;;;4974911;28;20478;-72
2023/05/11 11:35:59;;;;;;;4.57;4.20;;;17.40;99.90;;;;;;4974745;28;20526;-73
2023/05/11 11:38:27;;;;;;;6.03;4.60;;;17.40;99.90;;;;;;4974049;28;20604;-74
2023/05/11 11:40:54;;;;;;;5.60;4.90;;;17.50;99.90;;;;;;4968918;28;20884;-73
2023/05/11 11:43:22;;;;;;;4.30;3.90;;;17.50;99.90;;;;;;4974444;28;20463;-73
2023/05/11 11:45:53;;;;;;;5.90;5.03;;;17.50;99.90;;;;;;4974541;28;20483;-73
2023/05/11 11:48:29;;;;;;;5.67;4.40;;;17.60;99.90;;;;;;4974627;28;20581;-73
2023/05/11 11:51:04;;;;;;;5.37;4.37;;;17.70;99.90;;;;;;4974725;28;20906;-73
2023/05/11 11:54:06;;;;;;;4.83;4.07;;;17.90;99.90;;;;;;4973375;28;20463;-73
2023/05/11 11:56:41;;;;;;;4.77;4.30;;;18.10;99.90;;;;;;4974369;28;20565;-73
2023/05/11 11:59:10;;;;;;;5.20;4.70;;;18.20;99.90;;;;;;4974198;28;20825;-73
2023/05/11 12:01:39;;;;;;;4.57;3.80;;;18.20;99.90;;;;;;4974331;28;20821;-73
2023/05/11 12:04:33;;;;;;;4.87;4.33;;;18.30;99.90;;;;;;4973730;28;20796;-72
2023/05/11 12:07:03;;;;;;;4.33;4.00;;;18.30;99.90;;;;;;4974434;28;20995;-73
2023/05/11 12:09:31;;;;;;;7.47;5.43;;;18.30;99.90;;;;;;4972400;28;20464;-72
2023/05/11 12:12:01;;;;;;;7.10;6.40;;;18.20;99.90;;;;;;4974362;28;20468;-73
2023/05/11 12:14:28;;;;;;;7.30;4.90;;;18.10;99.90;;;;;;4973763;28;20464;-73
2023/05/11 12:17:02;;;;;;;5.90;5.30;;;18.10;99.90;;;;;;4974877;28;20499;-72
2023/05/11 12:19:29;;;;;;;4.70;4.33;;;18.20;99.90;;;;;;4974586;28;20467;-73
2023/05/11 12:21:56;;;;;;;5.93;5.37;;;18.30;99.90;;;;;;4974544;28;20464;-73
2023/05/11 12:24:23;;;;;;;4.60;4.20;;;18.40;99.90;;;;;;4972842;28;20464;-73
2023/05/11 12:26:56;;;;;;;5.73;4.30;;;18.50;99.90;;;;;;4974353;28;20488;-73
2023/05/11 12:29:22;;;;;;;4.57;4.27;;;18.70;99.90;;;;;;4973754;28;20968;-73
2023/05/11 12:31:49;;;;;;;6.50;4.77;;;18.80;99.90;;;;;;4974081;28;20467;-73
2023/05/11 12:34:16;;;;;;;5.57;5.00;;;18.80;99.90;;;;;;4973310;28;20877;-72
2023/05/11 12:36:44;;;;;;;8.70;6.50;;;18.80;99.90;;;;;;4973960;28;20511;-73
2023/05/11 12:39:17;;;;;;;3.90;3.70;;;18.80;99.90;;;;;;4972647;28;20467;-73
2023/05/11 12:41:44;;;;;;;6.13;5.60;;;18.60;99.90;;;;;;4967825;28;20546;-72
2023/05/11 12:44:15;;;;;;;6.90;5.07;;;18.50;99.90;;;;;;4972652;28;20467;-73
2023/05/11 12:46:42;;;;;;;5.10;4.67;;;18.30;99.90;;;;;;4973803;28;20511;-72
2023/05/11 12:49:12;;;;;;;4.27;3.97;;;18.20;99.90;;;;;;4973351;28;20495;-73
2023/05/11 12:51:51;;;;;;;8.20;7.50;;;18.10;99.90;;;;;;4973584;28;21046;-73
2023/05/11 12:54:26;;;;;;;6.93;4.70;;;18.00;99.90;;;;;;4972351;28;20582;-72
2023/05/11 12:56:53;;;;;;;6.27;5.07;;;18.00;99.90;;;;;;4973456;28;20555;-72
2023/05/11 12:59:33;;;;;;;6.33;5.23;;;18.10;99.90;;;;;;4973072;28;20464;-73
2023/05/11 13:02:16;;;;;;;6.10;5.50;;;18.00;99.90;;;;;;4973214;28;20463;-73
2023/05/11 13:04:45;;;;;;;5.17;4.80;;;18.00;99.90;;;;;;4972462;28;20475;-73
2023/05/11 13:07:13;;;;;;;5.37;4.30;;;18.00;99.90;;;;;;4973119;28;20515;-72
2023/05/11 13:09:41;;;;;;;5.33;4.93;;;18.10;99.90;;;;;;4972160;28;20468;-72
2023/05/11 13:12:17;;;;;;;5.23;4.73;;;18.10;99.90;;;;;;4973138;28;20821;-72
2023/05/11 13:14:46;;;;;;;6.30;5.10;;;18.10;99.90;;;;;;4972109;28;20582;-72
2023/05/11 13:17:13;;;;;;;7.60;6.20;;;18.10;99.90;;;;;;4972696;28;20491;-72
2023/05/11 13:19:40;;;;;;;6.87;6.33;;;18.10;99.90;;;;;;4972185;28;20483;-73
2023/05/11 13:22:10;;;;;;;5.57;5.07;;;18.20;99.90;;;;;;4972961;28;20467;-72
2023/05/11 13:24:37;;;;;;;5.17;4.63;;;18.30;99.90;;;;;;4971556;28;20501;-71
2023/05/11 13:27:04;;;;;;;6.67;5.80;;;18.60;99.90;;;;;;4972941;28;20495;-73
2023/05/11 13:29:31;;;;;;;6.30;5.70;;;18.70;99.90;;;;;;4972581;28;20499;-72
2023/05/11 13:31:59;;;;;;;6.53;4.60;;;18.70;99.90;;;;;;4972597;28;20494;-72
2023/05/11 13:34:26;;;;;;;7.27;6.53;;;18.80;99.90;;;;;;4972293;28;20816;-72
2023/05/11 13:36:52;;;;;;;6.67;6.07;;;18.80;99.90;;;;;;4973256;28;20518;-72
2023/05/11 13:39:19;;;;;;;4.83;4.50;;;18.90;99.90;;;;;;4972135;28;20459;-72
2023/05/11 13:41:46;;;;;;;6.77;5.40;;;19.00;99.90;;;;;;4968202;28;21018;-72
2023/05/11 13:44:12;;;;;;;6.40;5.80;;;19.00;99.90;;;;;;4972863;28;20546;-72
2023/05/11 13:46:39;;;;;;;5.53;4.97;;;19.00;99.90;;;;;;4973391;28;20906;-73
2023/05/11 13:49:07;;;;;;;5.43;4.93;;;19.00;99.90;;;;;;4973511;28;20498;-72
2023/05/11 13:51:34;;;;;;;4.80;4.40;;;19.10;99.90;;;;;;4973601;28;20470;-72
2023/05/11 13:54:02;;;;;;;5.70;5.20;;;19.10;99.90;;;;;;4971780;28;20464;-72
2023/05/11 13:56:29;;;;;;;5.17;4.77;;;19.10;99.90;;;;;;4973215;28;20860;-73
2023/05/11 13:58:56;;;;;;;5.97;5.37;;;19.20;99.90;;;;;;4972836;28;20467;-72
2023/05/11 14:01:23;;;;;;;4.83;4.43;;;19.30;99.90;;;;;;4973603;28;20887;-73
2023/05/11 14:03:56;;;;;;;4.70;4.40;;;19.30;99.90;;;;;;4972698;28;20468;-72
2023/05/11 14:06:25;;;;;;;6.13;5.63;;;19.20;99.90;;;;;;4973620;28;20483;-73
2023/05/11 14:08:53;;;;;;;6.97;6.00;;;19.20;99.90;;;;;;4972357;28;20498;-72
2023/05/11 14:11:21;;;;;;;6.27;5.67;;;19.10;99.90;;;;;;4973145;28;20478;-72
2023/05/11 14:13:49;;;;;;;5.03;4.63;;;19.10;99.90;;;;;;4972172;28;20503;-72
2023/05/11 14:16:17;;;;;;;4.60;4.30;;;19.10;99.90;;;;;;4972410;28;20502;-72
2023/05/11 14:18:43;;;;;;;5.57;5.07;;;19.00;99.90;;;;;;4972514;28;20949;-72
2023/05/11 14:21:10;;;;;;;5.63;5.23;;;18.90;99.90;;;;;;4972554;28;20579;-73
2023/05/11 14:23:38;;;;;;;6.20;5.60;;;18.90;99.90;;;;;;4970855;28;20952;-72
2023/05/11 14:26:05;;;;;;;4.90;4.37;;;19.00;99.90;;;;;;4972347;28;20488;-72
2023/05/11 14:28:32;;;;;;;6.60;6.00;;;19.00;99.90;;;;;;4972248;28;21008;-73
2023/05/11 14:30:59;;;;;;;5.10;4.73;;;19.00;99.90;;;;;;4971865;28;20467;-72
2023/05/11 14:33:26;;;;;;;5.60;5.20;;;19.00;99.90;;;;;;4971474;28;20464;-72
2023/05/11 14:35:53;;;;;;;4.97;4.57;;;19.00;99.90;;;;;;4972156;28;20487;-72
2023/05/11 14:38:20;;;;;;;4.43;4.13;;;18.90;99.90;;;;;;4971185;28;20464;-72
2023/05/11 14:40:48;;;;;;;4.50;4.10;;;18.90;99.90;;;;;;4965908;28;20463;-72
2023/05/11 14:43:15;;;;;;;7.50;5.47;;;18.90;99.90;;;;;;4971583;28;20929;-72
2023/05/11 14:45:43;;;;;;;5.17;4.70;;;18.90;99.90;;;;;;4972168;28;20488;-73
2023/05/11 14:48:10;;;;;;;5.77;5.03;;;18.90;99.90;;;;;;4971845;28;20483;-72
2023/05/11 14:50:36;;;;;;;5.63;5.20;;;18.80;99.90;;;;;;4972517;28;20535;-72
2023/05/11 14:53:03;;;;;;;5.20;4.73;;;18.70;99.90;;;;;;4971242;28;20524;-72
2023/05/11 14:55:30;;;;;;;7.17;5.10;;;18.60;99.90;;;;;;4971638;28;20496;-72
2023/05/11 14:57:58;;;;;;;6.03;5.23;;;18.60;99.90;;;;;;4971973;28;20502;-72
2023/05/11 15:00:25;;;;;;;5.77;5.00;;;18.50;99.90;;;;;;4971999;28;20463;-72
2023/05/11 15:02:52;;;;;;;6.93;6.03;;;18.50;99.90;;;;;;4971718;28;20468;-72
2023/05/11 15:05:18;;;;;;;5.67;4.70;;;18.40;99.90;;;;;;4971227;28;20488;-72
2023/05/11 15:07:45;;;;;;;4.80;4.40;;;18.40;99.90;;;;;;4971061;28;20514;-72
2023/05/11 15:10:12;;;;;;;5.30;4.83;;;18.30;99.90;;;;;;4971278;28;20839;-72
2023/05/11 15:12:39;;;;;;;7.60;4.63;;;18.10;99.90;;;;;;4971553;28;20464;-72
2023/05/11 15:15:08;;;;;;;5.20;4.80;;;18.10;99.90;;;;;;4970785;28;20464;-72
2023/05/11 15:17:35;;;;;;;7.53;5.20;;;18.00;99.90;;;;;;4971574;28;20464;-72
2023/05/11 15:20:02;;;;;;;6.20;5.63;;;17.90;99.90;;;;;;4971248;28;20456;-71
2023/05/11 15:22:29;;;;;;;7.10;5.37;;;17.80;99.90;;;;;;4971960;28;20927;-71
2023/05/11 15:24:55;;;;;;;7.93;7.23;;;17.70;99.90;;;;;;4970001;28;20963;-71
2023/05/11 15:27:22;;;;;;;6.27;5.77;;;17.60;99.90;;;;;;4971785;28;20468;-71
2023/05/11 15:29:49;;;;;;;7.60;6.77;;;17.60;99.90;;;;;;4971207;28;21102;-71
2023/05/11 15:32:17;;;;;;;7.80;7.10;;;17.60;99.90;;;;;;4971712;28;20549;-71
2023/05/11 15:34:44;;;;;;;8.80;6.20;;;17.50;99.90;;;;;;4970658;28;20460;-71
2023/05/11 15:37:11;;;;;;;8.07;6.33;;;17.50;99.90;;;;;;4971524;28;20984;-72
2023/05/11 15:39:38;;;;;;;7.90;7.17;;;17.40;99.90;;;;;;4968155;28;20539;-71
2023/05/11 15:42:06;;;;;;;8.20;7.43;;;17.40;99.90;;;;;;4968502;28;20547;-71
2023/05/11 15:44:33;;;;;;;10.73;8.00;;;17.40;99.90;;;;;;4974835;28;20470;-72
2023/05/11 15:47:00;;;;;;;9.60;6.30;;;17.20;99.90;;;;;;4975353;28;20633;-71
2023/05/11 15:49:28;;;;;;;5.67;5.17;;;17.20;99.90;;;;;;4975094;28;21019;-71
2023/05/11 15:51:55;;;;;;;5.00;4.70;;;17.20;99.90;;;;;;4976032;28;20468;-72
2023/05/11 15:54:22;;;;;;;8.00;6.13;;;17.20;99.90;;;;;;4973962;28;20945;-72
2023/05/11 15:56:48;;;;;;;7.27;6.67;;;17.20;99.90;;;;;;4975081;28;20487;-72
2023/05/11 15:59:15;;;;;;;8.83;7.97;;;17.10;99.90;;;;;;4975563;28;20548;-72
2023/05/11 16:01:42;;;;;;;8.10;6.60;;;17.00;99.90;;;;;;4974822;28;20467;-71
2023/05/11 16:04:09;;;;;;;8.70;7.13;;;16.90;99.90;;;;;;4974001;28;20463;-71
2023/05/11 16:06:37;;;;;;;11.13;8.27;;;16.90;99.90;;;;;;4974756;28;20498;-71
2023/05/11 16:09:04;;;;;;;10.80;8.00;;;16.80;99.90;;;;;;4973741;28;20598;-71
2023/05/11 16:11:31;;;;;;;9.90;8.90;;;16.70;99.90;;;;;;4974782;28;20592;-71
2023/05/11 16:13:58;;;;;;;8.50;6.80;;;16.70;99.90;;;;;;4973789;28;20589;-71
2023/05/11 16:16:25;;;;;;;10.37;8.77;;;16.60;99.90;;;;;;4974575;28;20522;-71
2023/05/11 16:18:51;;;;;;;8.13;7.33;;;16.50;99.90;;;;;;4974039;28;20519;-71
2023/05/11 16:21:18;;;;;;;8.63;7.73;;;16.50;99.90;;;;;;4974510;28;20478;-72
2023/05/11 16:23:46;;;;;;;9.63;7.87;;;16.50;99.90;;;;;;4972757;28;20467;-72
2023/05/11 16:26:13;;;;;;;7.53;6.80;;;16.50;99.90;;;;;;4974216;28;20487;-72
2023/05/11 16:28:41;;;;;;;8.77;7.40;;;16.50;99.90;;;;;;4973738;28;20488;-72
2023/05/11 16:31:09;;;;;;;8.77;7.00;;;16.50;99.90;;;;;;4974041;28;20551;-72
2023/05/11 16:33:36;;;;;;;9.00;7.30;;;16.60;99.90;;;;;;4973404;28;20502;-71
2023/05/11 16:36:04;;;;;;;13.60;7.47;;;16.60;99.90;;;;;;4973804;28;20819;-71
2023/05/11 16:38:31;;;;;;;10.43;7.50;;;16.50;99.90;;;;;;4972846;28;20463;-71
2023/05/11 16:40:59;;;;;;;7.70;7.10;;;16.50;99.90;;;;;;4967718;28;20527;-71
2023/05/11 16:43:26;;;;;;;7.70;7.00;;;16.50;99.90;;;;;;4972824;28;20626;-71
2023/05/11 16:45:53;;;;;;;6.13;5.63;;;16.50;99.90;;;;;;4973449;28;20488;-71
2023/05/11 16:48:20;;;;;;;7.03;5.80;;;16.50;99.90;;;;;;4973444;28;20551;-71
2023/05/11 16:50:47;;;;;;;6.13;5.63;;;16.40;99.90;;;;;;4973749;28;20463;-71
2023/05/11 16:53:13;;;;;;;6.43;4.77;;;16.40;99.90;;;;;;4972150;28;20972;-71